sensor_id;sensor_type;location;lat;lon;timestamp;P1;durP1;ratioP1;P2;durP2;ratioP2
24443;SDS011;13346;50.984;5.822;2023-07-31T00:01:07;6.05;;;3.38;;
24443;SDS011;13346;50.984;5.822;2023-07-31T00:03:35;7.70;;;3.42;;
24443;SDS011;13346;50.984;5.822;2023-07-31T00:06:02;4.35;;;3.53;;
24443;SDS011;13346;50.984;5.822;2023-07-31T00:08:31;3.83;;;2.83;;
24443;SDS011;13346;50.984;5.822;2023-07-31T00:10:58;4.32;;;3.70;;
24443;SDS011;13346;50.984;5.822;2023-07-31T00:13:25;9.10;;;3.92;;
24443;SDS011;13346;50.984;5.822;2023-07-31T00:15:53;6.45;;;3.53;;
24443;SDS011;13346;50.984;5.822;2023-07-31T00:18:20;5.72;;;3.83;;
24443;SDS011;13346;50.984;5.822;2023-07-31T00:20:47;3.65;;;2.42;;
24443;SDS011;13346;50.984;5.822;2023-07-31T00:23:15;5.28;;;3.03;;
24443;SDS011;13346;50.984;5.822;2023-07-31T00:25:44;9.18;;;4.25;;
24443;SDS011;13346;50.984;5.822;2023-07-31T00:28:11;4.65;;;2.65;;
24443;SDS011;13346;50.984;5.822;2023-07-31T00:30:38;4.63;;;3.40;;
24443;SDS011;13346;50.984;5.822;2023-07-31T00:33:06;11.98;;;3.58;;
24443;SDS011;13346;50.984;5.822;2023-07-31T00:35:33;4.18;;;3.10;;
24443;SDS011;13346;50.984;5.822;2023-07-31T00:38:01;9.27;;;3.72;;
24443;SDS011;13346;50.984;5.822;2023-07-31T00:40:28;9.77;;;3.60;;
24443;SDS011;13346;50.984;5.822;2023-07-31T00:42:57;3.80;;;2.83;;
24443;SDS011;13346;50.984;5.822;2023-07-31T00:45:24;7.07;;;3.55;;
24443;SDS011;13346;50.984;5.822;2023-07-31T00:47:53;4.63;;;3.40;;
24443;SDS011;13346;50.984;5.822;2023-07-31T00:50:21;6.18;;;3.83;;
24443;SDS011;13346;50.984;5.822;2023-07-31T00:52:50;5.82;;;4.20;;
24443;SDS011;13346;50.984;5.822;2023-07-31T00:55:18;3.65;;;2.97;;
24443;SDS011;13346;50.984;5.822;2023-07-31T00:57:47;6.47;;;3.45;;
24443;SDS011;13346;50.984;5.822;2023-07-31T01:00:18;3.65;;;3.20;;
24443;SDS011;13346;50.984;5.822;2023-07-31T01:02:45;5.43;;;3.10;;
24443;SDS011;13346;50.984;5.822;2023-07-31T01:05:13;6.28;;;3.70;;
24443;SDS011;13346;50.984;5.822;2023-07-31T01:07:42;3.97;;;3.47;;
24443;SDS011;13346;50.984;5.822;2023-07-31T01:10:16;4.95;;;3.05;;
24443;SDS011;13346;50.984;5.822;2023-07-31T01:12:48;3.83;;;3.20;;
24443;SDS011;13346;50.984;5.822;2023-07-31T01:15:18;4.88;;;3.38;;
24443;SDS011;13346;50.984;5.822;2023-07-31T01:17:45;4.60;;;3.05;;
24443;SDS011;13346;50.984;5.822;2023-07-31T01:20:14;5.32;;;3.10;;
24443;SDS011;13346;50.984;5.822;2023-07-31T01:22:51;7.78;;;3.08;;
24443;SDS011;13346;50.984;5.822;2023-07-31T01:25:36;8.05;;;3.85;;
24443;SDS011;13346;50.984;5.822;2023-07-31T01:28:31;7.03;;;3.33;;
24443;SDS011;13346;50.984;5.822;2023-07-31T01:31:06;4.05;;;3.17;;
24443;SDS011;13346;50.984;5.822;2023-07-31T01:33:36;3.78;;;3.33;;
24443;SDS011;13346;50.984;5.822;2023-07-31T01:36:04;6.13;;;3.28;;
24443;SDS011;13346;50.984;5.822;2023-07-31T01:38:32;4.95;;;3.25;;
24443;SDS011;13346;50.984;5.822;2023-07-31T01:40:59;3.88;;;3.25;;
24443;SDS011;13346;50.984;5.822;2023-07-31T01:43:26;5.63;;;3.35;;
24443;SDS011;13346;50.984;5.822;2023-07-31T01:45:55;3.17;;;2.88;;
24443;SDS011;13346;50.984;5.822;2023-07-31T01:48:22;4.63;;;3.38;;
24443;SDS011;13346;50.984;5.822;2023-07-31T01:50:50;4.78;;;4.22;;
24443;SDS011;13346;50.984;5.822;2023-07-31T01:53:17;6.53;;;3.80;;
24443;SDS011;13346;50.984;5.822;2023-07-31T01:55:44;6.45;;;3.90;;
24443;SDS011;13346;50.984;5.822;2023-07-31T01:58:11;4.03;;;3.60;;
24443;SDS011;13346;50.984;5.822;2023-07-31T02:00:39;4.50;;;3.42;;
24443;SDS011;13346;50.984;5.822;2023-07-31T02:03:07;5.07;;;3.33;;
24443;SDS011;13346;50.984;5.822;2023-07-31T02:05:35;3.85;;;3.33;;
24443;SDS011;13346;50.984;5.822;2023-07-31T02:08:02;7.65;;;3.80;;
24443;SDS011;13346;50.984;5.822;2023-07-31T02:10:29;6.85;;;3.78;;
24443;SDS011;13346;50.984;5.822;2023-07-31T02:12:57;7.30;;;4.53;;
24443;SDS011;13346;50.984;5.822;2023-07-31T02:15:24;4.70;;;3.20;;
24443;SDS011;13346;50.984;5.822;2023-07-31T02:17:51;4.47;;;3.30;;
24443;SDS011;13346;50.984;5.822;2023-07-31T02:20:20;4.07;;;3.42;;
24443;SDS011;13346;50.984;5.822;2023-07-31T02:22:47;8.18;;;3.92;;
24443;SDS011;13346;50.984;5.822;2023-07-31T02:25:15;11.52;;;3.90;;
24443;SDS011;13346;50.984;5.822;2023-07-31T02:27:42;7.28;;;3.72;;
24443;SDS011;13346;50.984;5.822;2023-07-31T02:30:10;9.50;;;4.82;;
24443;SDS011;13346;50.984;5.822;2023-07-31T02:32:38;4.90;;;2.92;;
24443;SDS011;13346;50.984;5.822;2023-07-31T02:35:05;6.22;;;3.92;;
24443;SDS011;13346;50.984;5.822;2023-07-31T02:37:35;5.97;;;3.35;;
24443;SDS011;13346;50.984;5.822;2023-07-31T02:40:04;6.57;;;3.45;;
24443;SDS011;13346;50.984;5.822;2023-07-31T02:42:32;5.32;;;4.05;;
24443;SDS011;13346;50.984;5.822;2023-07-31T02:44:59;8.20;;;3.85;;
24443;SDS011;13346;50.984;5.822;2023-07-31T02:47:27;7.72;;;3.55;;
24443;SDS011;13346;50.984;5.822;2023-07-31T02:49:54;4.32;;;2.92;;
24443;SDS011;13346;50.984;5.822;2023-07-31T02:52:22;7.55;;;3.70;;
24443;SDS011;13346;50.984;5.822;2023-07-31T02:54:52;6.43;;;3.85;;
24443;SDS011;13346;50.984;5.822;2023-07-31T02:57:19;6.43;;;4.05;;
24443;SDS011;13346;50.984;5.822;2023-07-31T02:59:46;5.70;;;3.38;;
24443;SDS011;13346;50.984;5.822;2023-07-31T03:02:13;5.93;;;3.90;;
24443;SDS011;13346;50.984;5.822;2023-07-31T03:04:41;5.78;;;3.53;;
24443;SDS011;13346;50.984;5.822;2023-07-31T03:07:08;7.25;;;3.45;;
24443;SDS011;13346;50.984;5.822;2023-07-31T03:09:36;13.65;;;4.25;;
24443;SDS011;13346;50.984;5.822;2023-07-31T03:12:05;7.82;;;3.60;;
24443;SDS011;13346;50.984;5.822;2023-07-31T03:14:33;5.25;;;3.63;;
24443;SDS011;13346;50.984;5.822;2023-07-31T03:17:00;6.78;;;3.95;;
24443;SDS011;13346;50.984;5.822;2023-07-31T03:19:30;6.15;;;4.38;;
24443;SDS011;13346;50.984;5.822;2023-07-31T03:21:57;9.27;;;3.67;;
24443;SDS011;13346;50.984;5.822;2023-07-31T03:24:25;5.57;;;4.07;;
24443;SDS011;13346;50.984;5.822;2023-07-31T03:26:52;5.03;;;3.75;;
24443;SDS011;13346;50.984;5.822;2023-07-31T03:29:21;4.07;;;3.70;;
24443;SDS011;13346;50.984;5.822;2023-07-31T03:31:48;4.00;;;3.50;;
24443;SDS011;13346;50.984;5.822;2023-07-31T03:34:15;4.20;;;3.80;;
24443;SDS011;13346;50.984;5.822;2023-07-31T03:36:43;3.72;;;3.42;;
24443;SDS011;13346;50.984;5.822;2023-07-31T03:39:11;9.32;;;5.15;;
24443;SDS011;13346;50.984;5.822;2023-07-31T03:41:38;5.57;;;3.97;;
24443;SDS011;13346;50.984;5.822;2023-07-31T03:44:05;7.03;;;4.18;;
24443;SDS011;13346;50.984;5.822;2023-07-31T03:46:34;7.05;;;3.90;;
24443;SDS011;13346;50.984;5.822;2023-07-31T03:49:02;6.00;;;3.90;;
24443;SDS011;13346;50.984;5.822;2023-07-31T03:51:29;5.32;;;3.58;;
24443;SDS011;13346;50.984;5.822;2023-07-31T03:53:56;6.10;;;4.28;;
24443;SDS011;13346;50.984;5.822;2023-07-31T03:56:24;6.00;;;4.32;;
24443;SDS011;13346;50.984;5.822;2023-07-31T03:58:51;3.90;;;3.53;;
24443;SDS011;13346;50.984;5.822;2023-07-31T04:01:19;5.05;;;3.65;;
24443;SDS011;13346;50.984;5.822;2023-07-31T04:03:48;4.30;;;3.95;;
24443;SDS011;13346;50.984;5.822;2023-07-31T04:06:15;5.03;;;4.15;;
24443;SDS011;13346;50.984;5.822;2023-07-31T04:08:43;3.38;;;3.03;;
24443;SDS011;13346;50.984;5.822;2023-07-31T04:11:10;3.53;;;3.22;;
24443;SDS011;13346;50.984;5.822;2023-07-31T04:13:38;4.88;;;4.05;;
24443;SDS011;13346;50.984;5.822;2023-07-31T04:16:05;4.03;;;3.70;;
24443;SDS011;13346;50.984;5.822;2023-07-31T04:18:32;3.25;;;3.05;;
24443;SDS011;13346;50.984;5.822;2023-07-31T04:21:01;2.67;;;2.47;;
24443;SDS011;13346;50.984;5.822;2023-07-31T04:23:28;3.40;;;3.10;;
24443;SDS011;13346;50.984;5.822;2023-07-31T04:25:56;4.00;;;3.45;;
24443;SDS011;13346;50.984;5.822;2023-07-31T04:28:23;3.92;;;3.25;;
24443;SDS011;13346;50.984;5.822;2023-07-31T04:30:51;4.32;;;3.35;;
24443;SDS011;13346;50.984;5.822;2023-07-31T04:33:18;4.80;;;3.67;;
24443;SDS011;13346;50.984;5.822;2023-07-31T04:35:48;5.15;;;3.75;;
24443;SDS011;13346;50.984;5.822;2023-07-31T04:38:19;4.85;;;2.92;;
24443;SDS011;13346;50.984;5.822;2023-07-31T04:40:47;3.50;;;2.92;;
24443;SDS011;13346;50.984;5.822;2023-07-31T04:43:14;3.60;;;3.30;;
24443;SDS011;13346;50.984;5.822;2023-07-31T04:45:42;3.40;;;3.08;;
24443;SDS011;13346;50.984;5.822;2023-07-31T04:48:13;2.60;;;2.40;;
24443;SDS011;13346;50.984;5.822;2023-07-31T04:50:40;5.63;;;3.25;;
24443;SDS011;13346;50.984;5.822;2023-07-31T04:53:07;4.35;;;3.42;;
24443;SDS011;13346;50.984;5.822;2023-07-31T04:55:36;3.35;;;3.05;;
24443;SDS011;13346;50.984;5.822;2023-07-31T04:58:03;3.33;;;3.08;;
24443;SDS011;13346;50.984;5.822;2023-07-31T05:00:30;5.53;;;3.17;;
24443;SDS011;13346;50.984;5.822;2023-07-31T05:02:58;2.75;;;2.53;;
24443;SDS011;13346;50.984;5.822;2023-07-31T05:05:25;3.13;;;2.92;;
24443;SDS011;13346;50.984;5.822;2023-07-31T05:07:52;3.08;;;2.88;;
24443;SDS011;13346;50.984;5.822;2023-07-31T05:10:19;4.25;;;3.20;;
24443;SDS011;13346;50.984;5.822;2023-07-31T05:12:48;4.13;;;3.63;;
24443;SDS011;13346;50.984;5.822;2023-07-31T05:15:15;3.33;;;3.03;;
24443;SDS011;13346;50.984;5.822;2023-07-31T05:17:43;3.55;;;3.33;;
24443;SDS011;13346;50.984;5.822;2023-07-31T05:20:10;3.88;;;3.47;;
24443;SDS011;13346;50.984;5.822;2023-07-31T05:22:38;3.17;;;2.90;;
24443;SDS011;13346;50.984;5.822;2023-07-31T05:25:05;10.65;;;3.05;;
24443;SDS011;13346;50.984;5.822;2023-07-31T05:27:33;4.43;;;2.65;;
24443;SDS011;13346;50.984;5.822;2023-07-31T05:30:02;3.28;;;2.97;;
24443;SDS011;13346;50.984;5.822;2023-07-31T05:32:30;4.90;;;3.42;;
24443;SDS011;13346;50.984;5.822;2023-07-31T05:34:57;4.70;;;3.30;;
24443;SDS011;13346;50.984;5.822;2023-07-31T05:37:25;5.28;;;3.00;;
24443;SDS011;13346;50.984;5.822;2023-07-31T05:39:52;4.28;;;3.63;;
24443;SDS011;13346;50.984;5.822;2023-07-31T05:42:19;4.28;;;3.78;;
24443;SDS011;13346;50.984;5.822;2023-07-31T05:44:46;5.38;;;4.00;;
24443;SDS011;13346;50.984;5.822;2023-07-31T05:47:15;7.78;;;3.50;;
24443;SDS011;13346;50.984;5.822;2023-07-31T05:49:42;4.43;;;3.78;;
24443;SDS011;13346;50.984;5.822;2023-07-31T05:52:10;3.55;;;2.78;;
24443;SDS011;13346;50.984;5.822;2023-07-31T05:54:37;5.10;;;4.03;;
24443;SDS011;13346;50.984;5.822;2023-07-31T05:57:04;5.35;;;3.22;;
24443;SDS011;13346;50.984;5.822;2023-07-31T05:59:32;4.20;;;3.40;;
24443;SDS011;13346;50.984;5.822;2023-07-31T06:01:59;8.18;;;3.20;;
24443;SDS011;13346;50.984;5.822;2023-07-31T06:04:28;5.47;;;3.38;;
24443;SDS011;13346;50.984;5.822;2023-07-31T06:06:56;3.60;;;2.70;;
24443;SDS011;13346;50.984;5.822;2023-07-31T06:09:23;5.22;;;3.20;;
24443;SDS011;13346;50.984;5.822;2023-07-31T06:11:51;3.70;;;3.00;;
24443;SDS011;13346;50.984;5.822;2023-07-31T06:14:18;7.43;;;3.17;;
24443;SDS011;13346;50.984;5.822;2023-07-31T06:16:45;3.72;;;2.85;;
24443;SDS011;13346;50.984;5.822;2023-07-31T06:19:12;5.40;;;3.20;;
24443;SDS011;13346;50.984;5.822;2023-07-31T06:21:41;3.38;;;3.17;;
24443;SDS011;13346;50.984;5.822;2023-07-31T06:24:09;3.67;;;2.80;;
24443;SDS011;13346;50.984;5.822;2023-07-31T06:26:37;3.10;;;2.85;;
24443;SDS011;13346;50.984;5.822;2023-07-31T06:29:05;3.33;;;2.88;;
24443;SDS011;13346;50.984;5.822;2023-07-31T06:31:32;3.80;;;3.15;;
24443;SDS011;13346;50.984;5.822;2023-07-31T06:33:59;3.03;;;2.75;;
24443;SDS011;13346;50.984;5.822;2023-07-31T06:36:26;7.63;;;3.50;;
24443;SDS011;13346;50.984;5.822;2023-07-31T06:38:55;4.18;;;3.03;;
24443;SDS011;13346;50.984;5.822;2023-07-31T06:41:22;3.22;;;2.83;;
24443;SDS011;13346;50.984;5.822;2023-07-31T06:43:49;3.35;;;3.05;;
24443;SDS011;13346;50.984;5.822;2023-07-31T06:46:17;4.35;;;3.13;;
24443;SDS011;13346;50.984;5.822;2023-07-31T06:48:44;4.88;;;3.22;;
24443;SDS011;13346;50.984;5.822;2023-07-31T06:51:11;5.95;;;3.15;;
24443;SDS011;13346;50.984;5.822;2023-07-31T06:53:38;2.92;;;2.72;;
24443;SDS011;13346;50.984;5.822;2023-07-31T06:56:08;6.53;;;2.92;;
24443;SDS011;13346;50.984;5.822;2023-07-31T06:58:35;3.25;;;2.95;;
24443;SDS011;13346;50.984;5.822;2023-07-31T07:01:02;4.60;;;4.22;;
24443;SDS011;13346;50.984;5.822;2023-07-31T07:03:29;3.72;;;3.40;;
24443;SDS011;13346;50.984;5.822;2023-07-31T07:05:57;3.38;;;3.08;;
24443;SDS011;13346;50.984;5.822;2023-07-31T07:08:25;4.35;;;2.78;;
24443;SDS011;13346;50.984;5.822;2023-07-31T07:10:52;3.33;;;3.13;;
24443;SDS011;13346;50.984;5.822;2023-07-31T07:13:20;4.22;;;2.92;;
24443;SDS011;13346;50.984;5.822;2023-07-31T07:15:48;3.72;;;2.90;;
24443;SDS011;13346;50.984;5.822;2023-07-31T07:18:15;3.78;;;3.20;;
24443;SDS011;13346;50.984;5.822;2023-07-31T07:20:46;2.80;;;2.67;;
24443;SDS011;13346;50.984;5.822;2023-07-31T07:23:14;3.53;;;3.25;;
24443;SDS011;13346;50.984;5.822;2023-07-31T07:25:41;8.80;;;3.90;;
24443;SDS011;13346;50.984;5.822;2023-07-31T07:28:09;3.65;;;3.28;;
24443;SDS011;13346;50.984;5.822;2023-07-31T07:30:37;5.55;;;3.47;;
24443;SDS011;13346;50.984;5.822;2023-07-31T07:33:04;4.78;;;3.28;;
24443;SDS011;13346;50.984;5.822;2023-07-31T07:35:32;4.65;;;3.40;;
24443;SDS011;13346;50.984;5.822;2023-07-31T07:38:00;3.85;;;3.55;;
24443;SDS011;13346;50.984;5.822;2023-07-31T07:40:28;6.45;;;3.85;;
24443;SDS011;13346;50.984;5.822;2023-07-31T07:42:55;4.50;;;2.72;;
24443;SDS011;13346;50.984;5.822;2023-07-31T07:45:22;3.30;;;3.00;;
24443;SDS011;13346;50.984;5.822;2023-07-31T07:47:51;3.08;;;2.85;;
24443;SDS011;13346;50.984;5.822;2023-07-31T07:50:18;4.78;;;3.08;;
24443;SDS011;13346;50.984;5.822;2023-07-31T07:52:46;3.88;;;2.60;;
24443;SDS011;13346;50.984;5.822;2023-07-31T07:55:13;3.03;;;2.60;;
24443;SDS011;13346;50.984;5.822;2023-07-31T07:57:40;2.58;;;2.25;;
24443;SDS011;13346;50.984;5.822;2023-07-31T08:00:09;2.63;;;2.42;;
24443;SDS011;13346;50.984;5.822;2023-07-31T08:02:37;3.05;;;2.53;;
24443;SDS011;13346;50.984;5.822;2023-07-31T08:05:06;2.78;;;2.58;;
24443;SDS011;13346;50.984;5.822;2023-07-31T08:07:34;3.78;;;3.17;;
24443;SDS011;13346;50.984;5.822;2023-07-31T08:10:01;3.97;;;2.80;;
24443;SDS011;13346;50.984;5.822;2023-07-31T08:12:28;2.70;;;2.50;;
24443;SDS011;13346;50.984;5.822;2023-07-31T08:14:56;3.05;;;2.75;;
24443;SDS011;13346;50.984;5.822;2023-07-31T08:17:25;3.13;;;2.75;;
24443;SDS011;13346;50.984;5.822;2023-07-31T08:19:52;3.67;;;3.13;;
24443;SDS011;13346;50.984;5.822;2023-07-31T08:22:21;3.47;;;3.10;;
24443;SDS011;13346;50.984;5.822;2023-07-31T08:24:49;2.95;;;2.75;;
24443;SDS011;13346;50.984;5.822;2023-07-31T08:27:16;6.00;;;3.60;;
24443;SDS011;13346;50.984;5.822;2023-07-31T08:29:43;3.33;;;2.75;;
24443;SDS011;13346;50.984;5.822;2023-07-31T08:32:10;3.13;;;2.92;;
24443;SDS011;13346;50.984;5.822;2023-07-31T08:34:38;4.35;;;3.10;;
24443;SDS011;13346;50.984;5.822;2023-07-31T08:37:05;3.25;;;2.95;;
24443;SDS011;13346;50.984;5.822;2023-07-31T08:39:34;4.20;;;2.70;;
24443;SDS011;13346;50.984;5.822;2023-07-31T08:42:07;3.00;;;2.75;;
24443;SDS011;13346;50.984;5.822;2023-07-31T08:44:34;4.97;;;2.58;;
24443;SDS011;13346;50.984;5.822;2023-07-31T08:47:03;3.17;;;2.53;;
24443;SDS011;13346;50.984;5.822;2023-07-31T08:49:30;2.88;;;2.67;;
24443;SDS011;13346;50.984;5.822;2023-07-31T08:51:59;4.10;;;2.75;;
24443;SDS011;13346;50.984;5.822;2023-07-31T08:54:26;2.75;;;2.55;;
24443;SDS011;13346;50.984;5.822;2023-07-31T08:56:57;3.25;;;2.47;;
24443;SDS011;13346;50.984;5.822;2023-07-31T08:59:26;2.00;;;1.92;;
24443;SDS011;13346;50.984;5.822;2023-07-31T09:01:57;2.33;;;2.22;;
24443;SDS011;13346;50.984;5.822;2023-07-31T09:04:32;6.45;;;3.38;;
24443;SDS011;13346;50.984;5.822;2023-07-31T09:07:01;3.03;;;2.83;;
24443;SDS011;13346;50.984;5.822;2023-07-31T09:09:29;3.28;;;3.08;;
24443;SDS011;13346;50.984;5.822;2023-07-31T09:11:58;4.63;;;3.78;;
24443;SDS011;13346;50.984;5.822;2023-07-31T09:14:26;4.13;;;3.53;;
24443;SDS011;13346;50.984;5.822;2023-07-31T09:16:53;3.70;;;2.70;;
24443;SDS011;13346;50.984;5.822;2023-07-31T09:19:25;4.10;;;2.88;;
24443;SDS011;13346;50.984;5.822;2023-07-31T09:21:53;4.97;;;2.65;;
24443;SDS011;13346;50.984;5.822;2023-07-31T09:24:27;2.72;;;2.50;;
24443;SDS011;13346;50.984;5.822;2023-07-31T09:26:55;6.10;;;3.45;;
24443;SDS011;13346;50.984;5.822;2023-07-31T09:29:25;3.05;;;2.78;;
24443;SDS011;13346;50.984;5.822;2023-07-31T09:31:53;3.47;;;3.17;;
24443;SDS011;13346;50.984;5.822;2023-07-31T09:34:27;3.63;;;3.33;;
24443;SDS011;13346;50.984;5.822;2023-07-31T09:36:57;4.15;;;3.85;;
24443;SDS011;13346;50.984;5.822;2023-07-31T09:39:29;3.40;;;3.17;;
24443;SDS011;13346;50.984;5.822;2023-07-31T09:41:56;3.33;;;3.00;;
24443;SDS011;13346;50.984;5.822;2023-07-31T09:44:38;2.60;;;2.40;;
24443;SDS011;13346;50.984;5.822;2023-07-31T09:47:06;3.03;;;2.83;;
24443;SDS011;13346;50.984;5.822;2023-07-31T09:49:47;2.75;;;2.25;;
24443;SDS011;13346;50.984;5.822;2023-07-31T09:52:15;4.15;;;2.38;;
24443;SDS011;13346;50.984;5.822;2023-07-31T09:54:42;2.45;;;2.30;;
24443;SDS011;13346;50.984;5.822;2023-07-31T09:57:09;2.03;;;1.90;;
24443;SDS011;13346;50.984;5.822;2023-07-31T09:59:39;2.88;;;2.67;;
24443;SDS011;13346;50.984;5.822;2023-07-31T10:02:07;3.58;;;2.67;;
24443;SDS011;13346;50.984;5.822;2023-07-31T10:04:41;4.97;;;2.95;;
24443;SDS011;13346;50.984;5.822;2023-07-31T10:07:10;4.20;;;2.35;;
24443;SDS011;13346;50.984;5.822;2023-07-31T10:09:38;2.25;;;2.15;;
24443;SDS011;13346;50.984;5.822;2023-07-31T10:12:05;1.92;;;1.83;;
24443;SDS011;13346;50.984;5.822;2023-07-31T10:14:37;3.60;;;2.22;;
24443;SDS011;13346;50.984;5.822;2023-07-31T10:17:08;2.35;;;1.50;;
24443;SDS011;13346;50.984;5.822;2023-07-31T10:19:35;4.38;;;1.60;;
24443;SDS011;13346;50.984;5.822;2023-07-31T10:22:03;1.88;;;1.77;;
24443;SDS011;13346;50.984;5.822;2023-07-31T10:24:31;1.85;;;1.73;;
24443;SDS011;13346;50.984;5.822;2023-07-31T10:26:59;3.13;;;1.67;;
24443;SDS011;13346;50.984;5.822;2023-07-31T10:29:29;1.10;;;1.10;;
24443;SDS011;13346;50.984;5.822;2023-07-31T10:31:58;1.40;;;1.30;;
24443;SDS011;13346;50.984;5.822;2023-07-31T10:34:26;1.55;;;1.33;;
24443;SDS011;13346;50.984;5.822;2023-07-31T10:39:59;1.75;;;1.63;;
24443;SDS011;13346;50.984;5.822;2023-07-31T10:42:31;1.40;;;1.40;;
24443;SDS011;13346;50.984;5.822;2023-07-31T10:45:01;2.83;;;1.15;;
24443;SDS011;13346;50.984;5.822;2023-07-31T10:47:31;1.50;;;1.40;;
24443;SDS011;13346;50.984;5.822;2023-07-31T10:50:10;1.40;;;1.35;;
24443;SDS011;13346;50.984;5.822;2023-07-31T10:52:45;2.03;;;1.60;;
24443;SDS011;13346;50.984;5.822;2023-07-31T10:55:15;1.23;;;1.20;;
24443;SDS011;13346;50.984;5.822;2023-07-31T10:57:50;1.52;;;1.42;;
24443;SDS011;13346;50.984;5.822;2023-07-31T11:00:17;1.92;;;1.52;;
24443;SDS011;13346;50.984;5.822;2023-07-31T11:02:57;1.63;;;1.55;;
24443;SDS011;13346;50.984;5.822;2023-07-31T11:05:41;2.05;;;1.95;;
24443;SDS011;13346;50.984;5.822;2023-07-31T11:08:13;1.95;;;1.85;;
24443;SDS011;13346;50.984;5.822;2023-07-31T11:10:42;2.45;;;1.67;;
24443;SDS011;13346;50.984;5.822;2023-07-31T11:13:10;1.70;;;1.40;;
24443;SDS011;13346;50.984;5.822;2023-07-31T11:15:37;1.77;;;1.60;;
24443;SDS011;13346;50.984;5.822;2023-07-31T11:18:06;3.17;;;2.10;;
24443;SDS011;13346;50.984;5.822;2023-07-31T11:20:36;2.30;;;2.05;;
24443;SDS011;13346;50.984;5.822;2023-07-31T11:23:06;1.70;;;1.60;;
24443;SDS011;13346;50.984;5.822;2023-07-31T11:25:35;2.47;;;2.10;;
24443;SDS011;13346;50.984;5.822;2023-07-31T11:28:04;2.72;;;2.22;;
24443;SDS011;13346;50.984;5.822;2023-07-31T11:30:32;5.05;;;2.70;;
24443;SDS011;13346;50.984;5.822;2023-07-31T11:33:00;3.10;;;2.80;;
24443;SDS011;13346;50.984;5.822;2023-07-31T11:35:31;2.78;;;2.25;;
24443;SDS011;13346;50.984;5.822;2023-07-31T11:37:59;2.30;;;2.10;;
24443;SDS011;13346;50.984;5.822;2023-07-31T11:40:26;3.35;;;3.05;;
24443;SDS011;13346;50.984;5.822;2023-07-31T11:42:56;3.30;;;3.00;;
24443;SDS011;13346;50.984;5.822;2023-07-31T11:45:24;4.05;;;3.15;;
24443;SDS011;13346;50.984;5.822;2023-07-31T11:47:54;3.75;;;3.55;;
24443;SDS011;13346;50.984;5.822;2023-07-31T11:50:22;2.92;;;2.72;;
24443;SDS011;13346;50.984;5.822;2023-07-31T11:52:54;4.90;;;3.90;;
24443;SDS011;13346;50.984;5.822;2023-07-31T11:55:25;3.55;;;3.25;;
24443;SDS011;13346;50.984;5.822;2023-07-31T11:57:54;3.42;;;3.22;;
24443;SDS011;13346;50.984;5.822;2023-07-31T12:00:24;2.85;;;2.50;;
24443;SDS011;13346;50.984;5.822;2023-07-31T12:02:53;3.28;;;2.97;;
24443;SDS011;13346;50.984;5.822;2023-07-31T12:05:21;3.15;;;2.83;;
24443;SDS011;13346;50.984;5.822;2023-07-31T12:07:49;6.85;;;3.35;;
24443;SDS011;13346;50.984;5.822;2023-07-31T12:10:29;4.30;;;2.55;;
24443;SDS011;13346;50.984;5.822;2023-07-31T12:13:01;2.55;;;2.35;;
24443;SDS011;13346;50.984;5.822;2023-07-31T12:15:30;4.72;;;2.95;;
24443;SDS011;13346;50.984;5.822;2023-07-31T12:17:59;3.65;;;3.00;;
24443;SDS011;13346;50.984;5.822;2023-07-31T12:20:27;3.40;;;3.10;;
24443;SDS011;13346;50.984;5.822;2023-07-31T12:22:57;4.10;;;3.75;;
24443;SDS011;13346;50.984;5.822;2023-07-31T12:25:29;4.32;;;3.88;;
24443;SDS011;13346;50.984;5.822;2023-07-31T12:27:58;3.35;;;3.13;;
24443;SDS011;13346;50.984;5.822;2023-07-31T12:30:32;3.13;;;2.85;;
24443;SDS011;13346;50.984;5.822;2023-07-31T12:33:03;4.35;;;3.85;;
24443;SDS011;13346;50.984;5.822;2023-07-31T12:35:35;3.30;;;3.05;;
24443;SDS011;13346;50.984;5.822;2023-07-31T12:38:03;5.57;;;3.72;;
24443;SDS011;13346;50.984;5.822;2023-07-31T12:40:32;4.05;;;2.75;;
24443;SDS011;13346;50.984;5.822;2023-07-31T12:43:02;3.08;;;2.85;;
24443;SDS011;13346;50.984;5.822;2023-07-31T12:45:30;4.50;;;3.03;;
24443;SDS011;13346;50.984;5.822;2023-07-31T12:47:57;6.60;;;2.65;;
24443;SDS011;13346;50.984;5.822;2023-07-31T12:50:25;3.22;;;2.42;;
24443;SDS011;13346;50.984;5.822;2023-07-31T12:52:53;8.48;;;3.13;;
24443;SDS011;13346;50.984;5.822;2023-07-31T12:55:20;2.17;;;2.08;;
24443;SDS011;13346;50.984;5.822;2023-07-31T12:57:49;3.90;;;2.88;;
24443;SDS011;13346;50.984;5.822;2023-07-31T13:00:17;6.45;;;2.65;;
24443;SDS011;13346;50.984;5.822;2023-07-31T13:02:44;2.78;;;2.20;;
24443;SDS011;13346;50.984;5.822;2023-07-31T13:05:12;5.32;;;2.92;;
24443;SDS011;13346;50.984;5.822;2023-07-31T13:07:39;4.07;;;2.42;;
24443;SDS011;13346;50.984;5.822;2023-07-31T13:10:07;2.92;;;2.35;;
24443;SDS011;13346;50.984;5.822;2023-07-31T13:12:35;3.92;;;2.45;;
24443;SDS011;13346;50.984;5.822;2023-07-31T13:15:04;2.45;;;2.13;;
24443;SDS011;13346;50.984;5.822;2023-07-31T13:17:32;3.05;;;2.80;;
24443;SDS011;13346;50.984;5.822;2023-07-31T13:20:00;2.50;;;2.17;;
24443;SDS011;13346;50.984;5.822;2023-07-31T13:22:28;2.40;;;2.30;;
24443;SDS011;13346;50.984;5.822;2023-07-31T13:24:56;6.78;;;2.38;;
24443;SDS011;13346;50.984;5.822;2023-07-31T13:27:23;2.47;;;2.28;;
24443;SDS011;13346;50.984;5.822;2023-07-31T13:29:50;2.42;;;2.33;;
24443;SDS011;13346;50.984;5.822;2023-07-31T13:32:20;2.70;;;2.50;;
24443;SDS011;13346;50.984;5.822;2023-07-31T13:34:48;2.80;;;2.60;;
24443;SDS011;13346;50.984;5.822;2023-07-31T13:37:15;2.92;;;2.72;;
24443;SDS011;13346;50.984;5.822;2023-07-31T13:39:42;3.50;;;2.20;;
24443;SDS011;13346;50.984;5.822;2023-07-31T13:42:10;2.53;;;2.33;;
24443;SDS011;13346;50.984;5.822;2023-07-31T13:44:38;3.17;;;2.88;;
24443;SDS011;13346;50.984;5.822;2023-07-31T13:47:05;4.80;;;3.10;;
24443;SDS011;13346;50.984;5.822;2023-07-31T13:49:34;3.85;;;3.45;;
24443;SDS011;13346;50.984;5.822;2023-07-31T13:52:02;4.43;;;3.05;;
24443;SDS011;13346;50.984;5.822;2023-07-31T13:54:30;4.05;;;3.25;;
24443;SDS011;13346;50.984;5.822;2023-07-31T13:56:57;2.85;;;2.67;;
24443;SDS011;13346;50.984;5.822;2023-07-31T13:59:25;3.72;;;3.42;;
24443;SDS011;13346;50.984;5.822;2023-07-31T14:01:52;3.08;;;2.78;;
24443;SDS011;13346;50.984;5.822;2023-07-31T14:04:19;4.10;;;3.80;;
24443;SDS011;13346;50.984;5.822;2023-07-31T14:06:48;3.08;;;2.75;;
24443;SDS011;13346;50.984;5.822;2023-07-31T14:09:15;3.20;;;2.58;;
24443;SDS011;13346;50.984;5.822;2023-07-31T14:11:43;3.35;;;3.13;;
24443;SDS011;13346;50.984;5.822;2023-07-31T14:14:11;3.42;;;3.22;;
24443;SDS011;13346;50.984;5.822;2023-07-31T14:16:39;3.10;;;2.83;;
24443;SDS011;13346;50.984;5.822;2023-07-31T14:19:06;6.35;;;3.15;;
24443;SDS011;13346;50.984;5.822;2023-07-31T14:21:34;3.67;;;3.45;;
24443;SDS011;13346;50.984;5.822;2023-07-31T14:24:02;3.55;;;2.90;;
24443;SDS011;13346;50.984;5.822;2023-07-31T14:26:30;3.10;;;2.90;;
24443;SDS011;13346;50.984;5.822;2023-07-31T14:28:57;7.10;;;2.97;;
24443;SDS011;13346;50.984;5.822;2023-07-31T14:31:25;4.20;;;2.90;;
24443;SDS011;13346;50.984;5.822;2023-07-31T14:33:52;2.63;;;2.42;;
24443;SDS011;13346;50.984;5.822;2023-07-31T14:36:19;2.75;;;2.47;;
24443;SDS011;13346;50.984;5.822;2023-07-31T14:38:46;3.78;;;2.75;;
24443;SDS011;13346;50.984;5.822;2023-07-31T14:41:15;4.80;;;3.05;;
24443;SDS011;13346;50.984;5.822;2023-07-31T14:43:42;3.65;;;3.30;;
24443;SDS011;13346;50.984;5.822;2023-07-31T14:46:09;2.95;;;2.75;;
24443;SDS011;13346;50.984;5.822;2023-07-31T14:48:37;3.20;;;2.83;;
24443;SDS011;13346;50.984;5.822;2023-07-31T14:51:04;5.47;;;2.85;;
24443;SDS011;13346;50.984;5.822;2023-07-31T14:53:31;3.60;;;3.20;;
24443;SDS011;13346;50.984;5.822;2023-07-31T14:55:58;3.53;;;3.22;;
24443;SDS011;13346;50.984;5.822;2023-07-31T14:58:27;3.75;;;2.63;;